sensor_id;sensor_type;location;lat;lon;timestamp;pressure;altitude;pressure_sealevel;temperature;humidity
63194;BME280;49289;51.670;5.624;2023-05-20T00:00:44;102513.38;;;22.80;37.49
63194;BME280;49289;51.670;5.624;2023-05-20T00:02:31;102499.30;;;22.69;37.45
63194;BME280;49289;51.670;5.624;2023-05-20T00:04:18;102431.38;;;22.29;37.51
63194;BME280;49289;51.670;5.624;2023-05-20T00:06:05;102530.89;;;22.58;37.49
63194;BME280;49289;51.670;5.624;2023-05-20T00:07:52;102517.58;;;22.23;37.72
63194;BME280;49289;51.670;5.624;2023-05-20T00:09:39;102563.62;;;22.01;38.06
63194;BME280;49289;51.670;5.624;2023-05-20T00:11:26;102494.53;;;22.34;38.14
63194;BME280;49289;51.670;5.624;2023-05-20T00:13:13;102544.01;;;22.43;37.99
63194;BME280;49289;51.670;5.624;2023-05-20T00:15:00;102478.59;;;22.49;37.90
63194;BME280;49289;51.670;5.624;2023-05-20T00:16:47;102521.87;;;22.68;37.84
63194;BME280;49289;51.670;5.624;2023-05-20T00:18:34;102485.58;;;22.46;37.87
63194;BME280;49289;51.670;5.624;2023-05-20T00:20:21;102536.48;;;22.53;37.87
63194;BME280;49289;51.670;5.624;2023-05-20T00:22:09;102518.41;;;22.66;38.11
63194;BME280;49289;51.670;5.624;2023-05-20T00:23:56;102520.63;;;22.73;38.09
63194;BME280;49289;51.670;5.624;2023-05-20T00:25:44;102521.66;;;22.52;37.98
63194;BME280;49289;51.670;5.624;2023-05-20T00:27:31;102504.67;;;22.35;37.97
63194;BME280;49289;51.670;5.624;2023-05-20T00:29:18;102482.98;;;22.17;38.06
63194;BME280;49289;51.670;5.624;2023-05-20T00:31:07;102485.88;;;22.11;38.15
63194;BME280;49289;51.670;5.624;2023-05-20T00:32:58;102506.12;;;22.37;38.35
63194;BME280;49289;51.670;5.624;2023-05-20T00:34:53;102522.40;;;22.35;38.35
63194;BME280;49289;51.670;5.624;2023-05-20T00:36:32;102509.67;;;22.29;38.43
63194;BME280;49289;51.670;5.624;2023-05-20T00:38:19;102533.89;;;21.94;38.64
63194;BME280;49289;51.670;5.624;2023-05-20T00:40:06;102539.45;;;22.22;38.65
63194;BME280;49289;51.670;5.624;2023-05-20T00:41:53;102511.75;;;22.29;38.49
63194;BME280;49289;51.670;5.624;2023-05-20T00:43:40;102389.78;;;21.85;38.45
63194;BME280;49289;51.670;5.624;2023-05-20T00:45:27;102538.55;;;22.26;38.77
63194;BME280;49289;51.670;5.624;2023-05-20T00:47:16;102513.88;;;22.10;38.89
63194;BME280;49289;51.670;5.624;2023-05-20T00:49:04;102464.08;;;21.37;38.90
63194;BME280;49289;51.670;5.624;2023-05-20T00:50:52;102448.78;;;21.43;39.08
63194;BME280;49289;51.670;5.624;2023-05-20T00:52:40;102470.66;;;21.83;39.38
63194;BME280;49289;51.670;5.624;2023-05-20T00:54:27;102527.95;;;22.11;39.51
63194;BME280;49289;51.670;5.624;2023-05-20T00:56:14;102475.06;;;21.86;39.29
63194;BME280;49289;51.670;5.624;2023-05-20T00:58:02;102515.53;;;22.18;39.27
63194;BME280;49289;51.670;5.624;2023-05-20T00:59:49;102491.29;;;22.19;39.40
63194;BME280;49289;51.670;5.624;2023-05-20T01:01:36;102508.15;;;22.28;39.20
63194;BME280;49289;51.670;5.624;2023-05-20T01:03:23;102445.33;;;21.83;39.00
63194;BME280;49289;51.670;5.624;2023-05-20T01:05:11;102454.75;;;21.80;39.17
63194;BME280;49289;51.670;5.624;2023-05-20T01:06:59;102437.67;;;21.78;39.47
63194;BME280;49289;51.670;5.624;2023-05-20T01:08:45;102475.08;;;21.80;39.45
63194;BME280;49289;51.670;5.624;2023-05-20T01:10:33;102471.76;;;21.97;39.29
63194;BME280;49289;51.670;5.624;2023-05-20T01:12:22;102488.16;;;22.12;39.10
63194;BME280;49289;51.670;5.624;2023-05-20T01:14:08;102514.98;;;21.89;39.31
63194;BME280;49289;51.670;5.624;2023-05-20T01:15:55;102417.75;;;21.48;39.34
63194;BME280;49289;51.670;5.624;2023-05-20T01:17:43;102488.61;;;21.68;39.50
63194;BME280;49289;51.670;5.624;2023-05-20T01:19:34;102482.13;;;21.51;39.56
63194;BME280;49289;51.670;5.624;2023-05-20T01:21:18;102481.94;;;21.13;39.77
63194;BME280;49289;51.670;5.624;2023-05-20T01:23:06;102505.13;;;21.66;39.85
63194;BME280;49289;51.670;5.624;2023-05-20T01:24:54;102484.11;;;21.65;39.75
63194;BME280;49289;51.670;5.624;2023-05-20T01:26:43;102477.97;;;21.52;39.89
63194;BME280;49289;51.670;5.624;2023-05-20T01:28:30;102525.16;;;21.69;40.14
63194;BME280;49289;51.670;5.624;2023-05-20T01:30:19;102487.37;;;21.54;40.05
63194;BME280;49289;51.670;5.624;2023-05-20T01:32:07;102508.70;;;21.78;40.06
63194;BME280;49289;51.670;5.624;2023-05-20T01:33:54;102536.00;;;21.81;40.09
63194;BME280;49289;51.670;5.624;2023-05-20T01:35:40;102454.41;;;21.67;40.09
63194;BME280;49289;51.670;5.624;2023-05-20T01:37:27;102283.34;;;20.94;40.17
63194;BME280;49289;51.670;5.624;2023-05-20T01:39:14;102511.68;;;21.03;40.62
63194;BME280;49289;51.670;5.624;2023-05-20T01:41:01;102501.13;;;21.61;40.57
63194;BME280;49289;51.670;5.624;2023-05-20T01:42:48;102517.34;;;21.90;40.56
63194;BME280;49289;51.670;5.624;2023-05-20T01:44:35;102499.86;;;21.67;40.44
63194;BME280;49289;51.670;5.624;2023-05-20T01:46:22;102440.75;;;21.28;40.45
63194;BME280;49289;51.670;5.624;2023-05-20T01:48:10;102490.39;;;21.41;40.60
63194;BME280;49289;51.670;5.624;2023-05-20T01:49:57;102488.97;;;21.37;40.77
63194;BME280;49289;51.670;5.624;2023-05-20T01:51:45;102430.05;;;21.50;40.70
63194;BME280;49289;51.670;5.624;2023-05-20T01:53:32;102484.98;;;21.44;40.71
63194;BME280;49289;51.670;5.624;2023-05-20T01:55:21;102518.45;;;21.51;40.91
63194;BME280;49289;51.670;5.624;2023-05-20T01:57:08;102482.31;;;21.60;40.85
63194;BME280;49289;51.670;5.624;2023-05-20T01:58:55;102420.67;;;21.34;40.82
63194;BME280;49289;51.670;5.624;2023-05-20T02:00:42;102507.83;;;21.72;40.91
63194;BME280;49289;51.670;5.624;2023-05-20T02:02:29;102424.57;;;21.43;40.92
63194;BME280;49289;51.670;5.624;2023-05-20T02:04:16;102481.55;;;21.34;41.17
63194;BME280;49289;51.670;5.624;2023-05-20T02:06:03;102521.77;;;21.28;41.41
63194;BME280;49289;51.670;5.624;2023-05-20T02:07:50;102512.23;;;21.45;41.33
63194;BME280;49289;51.670;5.624;2023-05-20T02:09:37;102517.25;;;21.35;41.36
63194;BME280;49289;51.670;5.624;2023-05-20T02:11:24;102460.69;;;21.30;41.41
63194;BME280;49289;51.670;5.624;2023-05-20T02:13:11;102416.31;;;21.05;41.38
63194;BME280;49289;51.670;5.624;2023-05-20T02:14:58;102485.22;;;21.14;41.62
63194;BME280;49289;51.670;5.624;2023-05-20T02:16:45;102488.02;;;21.20;41.63
63194;BME280;49289;51.670;5.624;2023-05-20T02:18:32;102450.41;;;20.87;41.74
63194;BME280;49289;51.670;5.624;2023-05-20T02:20:20;102478.03;;;21.03;41.90
63194;BME280;49289;51.670;5.624;2023-05-20T02:22:08;102457.41;;;21.10;41.90
63194;BME280;49289;51.670;5.624;2023-05-20T02:23:55;102506.73;;;21.40;41.93
63194;BME280;49289;51.670;5.624;2023-05-20T02:25:42;102403.11;;;21.08;41.69
63194;BME280;49289;51.670;5.624;2023-05-20T02:27:29;102379.61;;;20.88;41.81
63194;BME280;49289;51.670;5.624;2023-05-20T02:29:16;102467.82;;;21.28;41.77
63194;BME280;49289;51.670;5.624;2023-05-20T02:31:04;102488.63;;;21.47;41.99
63194;BME280;49289;51.670;5.624;2023-05-20T02:32:52;102443.66;;;21.42;41.88
63194;BME280;49289;51.670;5.624;2023-05-20T02:34:40;102484.22;;;21.55;41.78
63194;BME280;49289;51.670;5.624;2023-05-20T02:36:29;102488.66;;;21.44;41.96
63194;BME280;49289;51.670;5.624;2023-05-20T02:38:16;102471.75;;;21.29;41.83
63194;BME280;49289;51.670;5.624;2023-05-20T02:40:03;102446.72;;;21.41;41.70
63194;BME280;49289;51.670;5.624;2023-05-20T02:41:50;102427.61;;;21.06;41.93
63194;BME280;49289;51.670;5.624;2023-05-20T02:43:37;102493.17;;;21.44;41.96
63194;BME280;49289;51.670;5.624;2023-05-20T02:45:24;102505.50;;;21.47;41.94
63194;BME280;49289;51.670;5.624;2023-05-20T02:47:12;102496.51;;;21.41;41.97
63194;BME280;49289;51.670;5.624;2023-05-20T02:48:59;102492.44;;;21.57;42.05
63194;BME280;49289;51.670;5.624;2023-05-20T02:50:46;102434.31;;;21.28;41.85
63194;BME280;49289;51.670;5.624;2023-05-20T02:52:35;102465.45;;;21.34;41.96
63194;BME280;49289;51.670;5.624;2023-05-20T02:54:23;102430.37;;;21.07;41.95
63194;BME280;49289;51.670;5.624;2023-05-20T02:56:11;102488.39;;;21.24;42.17
63194;BME280;49289;51.670;5.624;2023-05-20T02:57:58;102487.94;;;21.39;42.17
63194;BME280;49289;51.670;5.624;2023-05-20T02:59:45;102458.31;;;21.23;42.37
63194;BME280;49289;51.670;5.624;2023-05-20T03:01:32;102475.55;;;21.42;42.52
63194;BME280;49289;51.670;5.624;2023-05-20T03:03:19;102468.52;;;21.44;42.39
63194;BME280;49289;51.670;5.624;2023-05-20T03:05:07;102460.37;;;21.49;42.45
63194;BME280;49289;51.670;5.624;2023-05-20T03:06:55;102466.58;;;21.59;42.52
63194;BME280;49289;51.670;5.624;2023-05-20T03:08:43;102440.88;;;21.52;42.41
63194;BME280;49289;51.670;5.624;2023-05-20T03:10:31;102474.61;;;21.23;42.43
63194;BME280;49289;51.670;5.624;2023-05-20T03:12:19;102484.62;;;21.47;42.50
63194;BME280;49289;51.670;5.624;2023-05-20T03:14:06;102453.13;;;21.36;42.52
63194;BME280;49289;51.670;5.624;2023-05-20T03:15:54;102458.32;;;21.47;42.74
63194;BME280;49289;51.670;5.624;2023-05-20T03:17:42;102466.50;;;21.59;42.82
63194;BME280;49289;51.670;5.624;2023-05-20T03:19:29;102439.59;;;21.47;42.73
63194;BME280;49289;51.670;5.624;2023-05-20T03:21:18;102444.79;;;21.41;42.62
63194;BME280;49289;51.670;5.624;2023-05-20T03:23:06;102476.19;;;21.54;42.92
63194;BME280;49289;51.670;5.624;2023-05-20T03:24:53;102435.98;;;21.28;42.81
63194;BME280;49289;51.670;5.624;2023-05-20T03:26:41;102454.46;;;21.43;42.91
63194;BME280;49289;51.670;5.624;2023-05-20T03:28:30;102388.59;;;21.20;42.74
63194;BME280;49289;51.670;5.624;2023-05-20T03:30:19;102453.06;;;21.43;42.61
63194;BME280;49289;51.670;5.624;2023-05-20T03:32:07;102440.84;;;21.32;42.77
63194;BME280;49289;51.670;5.624;2023-05-20T03:33:55;102481.92;;;21.39;42.83
63194;BME280;49289;51.670;5.624;2023-05-20T03:35:42;102458.81;;;21.41;43.02
63194;BME280;49289;51.670;5.624;2023-05-20T03:37:29;102464.05;;;21.35;43.13
63194;BME280;49289;51.670;5.624;2023-05-20T03:39:16;102474.16;;;21.46;43.05
63194;BME280;49289;51.670;5.624;2023-05-20T03:41:03;102464.83;;;21.29;43.15
63194;BME280;49289;51.670;5.624;2023-05-20T03:42:50;102441.41;;;21.22;43.14
63194;BME280;49289;51.670;5.624;2023-05-20T03:44:37;102459.41;;;21.23;42.99
63194;BME280;49289;51.670;5.624;2023-05-20T03:46:24;102468.92;;;21.23;43.30
63194;BME280;49289;51.670;5.624;2023-05-20T03:48:11;102459.15;;;21.29;43.30
63194;BME280;49289;51.670;5.624;2023-05-20T03:49:58;102452.50;;;21.27;43.63
63194;BME280;49289;51.670;5.624;2023-05-20T03:51:45;102451.02;;;21.08;43.37
63194;BME280;49289;51.670;5.624;2023-05-20T03:53:33;102448.36;;;21.16;43.38
63194;BME280;49289;51.670;5.624;2023-05-20T03:55:21;102440.51;;;21.04;43.24
63194;BME280;49289;51.670;5.624;2023-05-20T03:57:10;102345.31;;;20.44;43.98
63194;BME280;49289;51.670;5.624;2023-05-20T03:58:58;102410.27;;;19.96;44.99
63194;BME280;49289;51.670;5.624;2023-05-20T04:00:45;102430.75;;;19.83;45.98
63194;BME280;49289;51.670;5.624;2023-05-20T04:02:32;102461.44;;;19.65;46.68
63194;BME280;49289;51.670;5.624;2023-05-20T04:04:19;102463.55;;;19.55;47.14
63194;BME280;49289;51.670;5.624;2023-05-20T04:06:06;102473.81;;;19.72;47.29
63194;BME280;49289;51.670;5.624;2023-05-20T04:07:53;102359.70;;;19.09;47.37
63194;BME280;49289;51.670;5.624;2023-05-20T04:09:40;102491.25;;;19.50;47.74
63194;BME280;49289;51.670;5.624;2023-05-20T04:11:27;102417.09;;;19.35;47.84
63194;BME280;49289;51.670;5.624;2023-05-20T04:13:14;102498.40;;;19.52;48.15
63194;BME280;49289;51.670;5.624;2023-05-20T04:15:02;102414.45;;;19.49;47.83
63194;BME280;49289;51.670;5.624;2023-05-20T04:16:49;102430.88;;;19.40;47.89
63194;BME280;49289;51.670;5.624;2023-05-20T04:18:37;102483.74;;;19.64;48.33
63194;BME280;49289;51.670;5.624;2023-05-20T04:20:26;102492.02;;;19.68;48.45
63194;BME280;49289;51.670;5.624;2023-05-20T04:22:13;102467.05;;;19.63;48.31
63194;BME280;49289;51.670;5.624;2023-05-20T04:24:01;102451.76;;;19.64;48.17
63194;BME280;49289;51.670;5.624;2023-05-20T04:25:49;102468.10;;;19.57;48.44
63194;BME280;49289;51.670;5.624;2023-05-20T04:27:37;102478.31;;;19.72;48.53
63194;BME280;49289;51.670;5.624;2023-05-20T04:29:27;102435.55;;;19.55;48.25
63194;BME280;49289;51.670;5.624;2023-05-20T04:31:15;102445.59;;;19.70;48.30
63194;BME280;49289;51.670;5.624;2023-05-20T04:33:02;102465.19;;;19.54;48.46
63194;BME280;49289;51.670;5.624;2023-05-20T04:34:51;102412.22;;;19.44;48.26
63194;BME280;49289;51.670;5.624;2023-05-20T04:36:38;102456.17;;;19.47;48.61
63194;BME280;49289;51.670;5.624;2023-05-20T04:38:26;102502.41;;;19.68;48.70
63194;BME280;49289;51.670;5.624;2023-05-20T04:40:15;102415.67;;;19.48;48.79
63194;BME280;49289;51.670;5.624;2023-05-20T04:42:03;102432.75;;;19.27;48.92
63194;BME280;49289;51.670;5.624;2023-05-20T04:43:51;102428.14;;;19.40;48.78
63194;BME280;49289;51.670;5.624;2023-05-20T04:45:39;102453.17;;;19.31;49.21
63194;BME280;49289;51.670;5.624;2023-05-20T04:47:26;102466.71;;;19.42;49.25
63194;BME280;49289;51.670;5.624;2023-05-20T04:49:14;102446.86;;;19.28;49.32
63194;BME280;49289;51.670;5.624;2023-05-20T04:51:03;102474.61;;;19.51;49.10
63194;BME280;49289;51.670;5.624;2023-05-20T04:52:51;102381.22;;;19.13;49.13
63194;BME280;49289;51.670;5.624;2023-05-20T04:54:38;102480.87;;;19.20;49.56
63194;BME280;49289;51.670;5.624;2023-05-20T04:56:26;102455.67;;;19.22;49.94
63194;BME280;49289;51.670;5.624;2023-05-20T04:58:14;102527.39;;;19.70;49.61
63194;BME280;49289;51.670;5.624;2023-05-20T05:00:02;102403.63;;;19.20;49.49
63194;BME280;49289;51.670;5.624;2023-05-20T05:01:50;102304.87;;;18.85;49.89
63194;BME280;49289;51.670;5.624;2023-05-20T05:03:38;102516.52;;;19.23;49.97
63194;BME280;49289;51.670;5.624;2023-05-20T05:05:26;102610.57;;;19.80;49.52
63194;BME280;49289;51.670;5.624;2023-05-20T05:07:14;102473.03;;;19.77;49.24
63194;BME280;49289;51.670;5.624;2023-05-20T05:09:02;102419.14;;;19.34;49.50
63194;BME280;49289;51.670;5.624;2023-05-20T05:10:50;102488.42;;;19.47;49.75
63194;BME280;49289;51.670;5.624;2023-05-20T05:12:38;102442.02;;;19.44;49.52
63194;BME280;49289;51.670;5.624;2023-05-20T05:14:26;102271.70;;;18.66;50.34
63194;BME280;49289;51.670;5.624;2023-05-20T05:16:14;102347.58;;;18.68;50.91
63194;BME280;49289;51.670;5.624;2023-05-20T05:18:02;102604.63;;;19.63;50.10
63194;BME280;49289;51.670;5.624;2023-05-20T05:19:50;102541.62;;;19.59;49.93
63194;BME280;49289;51.670;5.624;2023-05-20T05:21:38;102565.14;;;19.92;49.53
63194;BME280;49289;51.670;5.624;2023-05-20T05:23:26;102524.05;;;20.17;49.02
63194;BME280;49289;51.670;5.624;2023-05-20T05:25:14;102534.03;;;20.50;48.78
63194;BME280;49289;51.670;5.624;2023-05-20T05:27:04;102404.16;;;20.35;48.49
63194;BME280;49289;51.670;5.624;2023-05-20T05:28:53;102447.98;;;20.44;48.06
63194;BME280;49289;51.670;5.624;2023-05-20T05:30:41;102293.75;;;19.88;48.42
63194;BME280;49289;51.670;5.624;2023-05-20T05:32:29;102405.69;;;20.00;48.49
63194;BME280;49289;51.670;5.624;2023-05-20T05:34:17;102474.37;;;20.08;48.67
63194;BME280;49289;51.670;5.624;2023-05-20T05:36:04;102414.62;;;19.85;48.82
63194;BME280;49289;51.670;5.624;2023-05-20T05:37:52;102321.84;;;19.56;48.96
63194;BME280;49289;51.670;5.624;2023-05-20T05:39:40;102508.84;;;19.68;49.76
63194;BME280;49289;51.670;5.624;2023-05-20T05:41:28;102617.27;;;20.28;49.18
63194;BME280;49289;51.670;5.624;2023-05-20T05:43:15;102530.68;;;20.24;48.89
63194;BME280;49289;51.670;5.624;2023-05-20T05:45:02;102553.54;;;20.67;48.46
63194;BME280;49289;51.670;5.624;2023-05-20T05:46:49;102513.56;;;20.89;48.04
63194;BME280;49289;51.670;5.624;2023-05-20T05:48:36;102449.25;;;20.55;48.08
63194;BME280;49289;51.670;5.624;2023-05-20T05:50:23;102273.59;;;19.99;48.27
63194;BME280;49289;51.670;5.624;2023-05-20T05:52:11;102486.55;;;20.26;48.80
63194;BME280;49289;51.670;5.624;2023-05-20T05:53:59;102464.02;;;20.52;48.00
63194;BME280;49289;51.670;5.624;2023-05-20T05:55:46;102520.70;;;20.40;48.28
63194;BME280;49289;51.670;5.624;2023-05-20T05:57:34;102585.34;;;20.90;48.09
63194;BME280;49289;51.670;5.624;2023-05-20T05:59:22;102410.91;;;20.42;47.76
63194;BME280;49289;51.670;5.624;2023-05-20T06:01:10;102553.27;;;20.95;47.68
63194;BME280;49289;51.670;5.624;2023-05-20T06:02:58;102525.41;;;21.16;47.38
63194;BME280;49289;51.670;5.624;2023-05-20T06:04:46;102447.99;;;21.18;47.02
63194;BME280;49289;51.670;5.624;2023-05-20T06:06:34;102488.47;;;21.17;47.12
63194;BME280;49289;51.670;5.624;2023-05-20T06:08:22;102513.36;;;21.07;47.39
63194;BME280;49289;51.670;5.624;2023-05-20T06:10:11;102495.21;;;21.06;47.13
63194;BME280;49289;51.670;5.624;2023-05-20T06:11:58;102527.63;;;21.23;47.12
63194;BME280;49289;51.670;5.624;2023-05-20T06:13:45;102444.84;;;21.19;46.58
63194;BME280;49289;51.670;5.624;2023-05-20T06:15:32;102403.28;;;21.02;46.71
63194;BME280;49289;51.670;5.624;2023-05-20T06:17:19;102472.16;;;21.08;46.64
63194;BME280;49289;51.670;5.624;2023-05-20T06:19:06;102382.91;;;21.16;46.56
63194;BME280;49289;51.670;5.624;2023-05-20T06:20:38;102506.08;;;21.23;46.75
63194;BME280;49289;51.670;5.624;2023-05-20T06:22:25;102481.09;;;21.36;46.39
63194;BME280;49289;51.670;5.624;2023-05-20T06:24:12;102505.36;;;21.89;45.84
63194;BME280;49289;51.670;5.624;2023-05-20T06:26:02;102361.07;;;21.59;45.49
63194;BME280;49289;51.670;5.624;2023-05-20T06:27:50;102461.97;;;21.62;45.43
63194;BME280;49289;51.670;5.624;2023-05-20T06:29:38;102417.55;;;21.86;45.32
63194;BME280;49289;51.670;5.624;2023-05-20T06:31:26;102285.80;;;21.38;45.28
63194;BME280;49289;51.670;5.624;2023-05-20T06:33:14;102527.66;;;22.03;45.10
63194;BME280;49289;51.670;5.624;2023-05-20T06:35:02;102509.06;;;22.55;44.56
63194;BME280;49289;51.670;5.624;2023-05-20T06:36:50;102388.52;;;22.37;44.18
63194;BME280;49289;51.670;5.624;2023-05-20T06:38:38;102429.19;;;22.33;44.15
63194;BME280;49289;51.670;5.624;2023-05-20T06:40:25;102386.44;;;21.62;44.95
63194;BME280;49289;51.670;5.624;2023-05-20T06:42:12;102426.49;;;21.75;45.08
63194;BME280;49289;51.670;5.624;2023-05-20T06:43:59;102474.58;;;22.00;44.88
63194;BME280;49289;51.670;5.624;2023-05-20T06:45:46;102530.49;;;22.34;45.02
63194;BME280;49289;51.670;5.624;2023-05-20T06:47:33;102291.33;;;22.01;44.25
63194;BME280;49289;51.670;5.624;2023-05-20T06:49:20;102487.80;;;22.42;44.34
63194;BME280;49289;51.670;5.624;2023-05-20T06:51:07;102445.65;;;22.00;44.55
63194;BME280;49289;51.670;5.624;2023-05-20T06:52:54;102337.23;;;22.07;44.29
63194;BME280;49289;51.670;5.624;2023-05-20T06:54:42;102473.05;;;22.94;43.65
63194;BME280;49289;51.670;5.624;2023-05-20T06:56:30;102404.75;;;22.70;43.38
63194;BME280;49289;51.670;5.624;2023-05-20T06:58:18;102363.86;;;22.79;42.99
63194;BME280;49289;51.670;5.624;2023-05-20T07:00:05;102423.03;;;23.29;42.93
63194;BME280;49289;51.670;5.624;2023-05-20T07:01:52;102424.52;;;23.52;42.56
63194;BME280;49289;51.670;5.624;2023-05-20T07:03:39;102227.36;;;22.97;42.25
63194;BME280;49289;51.670;5.624;2023-05-20T07:05:26;102375.63;;;22.90;42.28
63194;BME280;49289;51.670;5.624;2023-05-20T07:07:13;102470.26;;;23.12;42.77
63194;BME280;49289;51.670;5.624;2023-05-20T07:09:00;102396.90;;;23.13;42.91
63194;BME280;49289;51.670;5.624;2023-05-20T07:10:48;102306.77;;;22.93;42.35
63194;BME280;49289;51.670;5.624;2023-05-20T07:12:36;102429.55;;;23.28;42.40
63194;BME280;49289;51.670;5.624;2023-05-20T07:14:24;102405.19;;;23.60;42.24
63194;BME280;49289;51.670;5.624;2023-05-20T07:16:13;102330.85;;;23.42;41.97
63194;BME280;49289;51.670;5.624;2023-05-20T07:18:01;102401.97;;;23.22;41.72
63194;BME280;49289;51.670;5.624;2023-05-20T07:19:48;102379.14;;;22.96;42.06
63194;BME280;49289;51.670;5.624;2023-05-20T07:21:36;102304.63;;;22.59;42.13
63194;BME280;49289;51.670;5.624;2023-05-20T07:23:24;102366.71;;;22.59;42.23
63194;BME280;49289;51.670;5.624;2023-05-20T07:25:13;102459.92;;;23.22;41.82
63194;BME280;49289;51.670;5.624;2023-05-20T07:27:00;102425.48;;;23.60;41.95
63194;BME280;49289;51.670;5.624;2023-05-20T07:28:47;102328.75;;;23.26;41.59
63194;BME280;49289;51.670;5.624;2023-05-20T07:30:34;102502.81;;;23.68;41.85
63194;BME280;49289;51.670;5.624;2023-05-20T07:32:21;102425.20;;;23.97;41.40
63194;BME280;49289;51.670;5.624;2023-05-20T07:34:08;102440.26;;;23.62;41.28
63194;BME280;49289;51.670;5.624;2023-05-20T07:35:55;102338.77;;;23.78;41.21
63194;BME280;49289;51.670;5.624;2023-05-20T07:37:43;102360.83;;;23.57;41.10
63194;BME280;49289;51.670;5.624;2023-05-20T07:39:31;102456.61;;;24.16;40.82
63194;BME280;49289;51.670;5.624;2023-05-20T07:41:18;102320.42;;;24.11;40.90
63194;BME280;49289;51.670;5.624;2023-05-20T07:43:06;102290.45;;;23.41;40.45
63194;BME280;49289;51.670;5.624;2023-05-20T07:44:54;102360.24;;;23.40;40.52
63194;BME280;49289;51.670;5.624;2023-05-20T07:46:41;102388.41;;;23.83;40.68
63194;BME280;49289;51.670;5.624;2023-05-20T07:48:28;102294.97;;;23.32;40.31
63194;BME280;49289;51.670;5.624;2023-05-20T07:50:16;102309.27;;;23.10;40.54
63194;BME280;49289;51.670;5.624;2023-05-20T07:52:03;102434.63;;;23.85;40.82
63194;BME280;49289;51.670;5.624;2023-05-20T07:53:51;102255.82;;;23.52;40.46
63194;BME280;49289;51.670;5.624;2023-05-20T07:55:39;102347.62;;;23.73;40.41
63194;BME280;49289;51.670;5.624;2023-05-20T07:57:26;102372.11;;;24.04;40.13
63194;BME280;49289;51.670;5.624;2023-05-20T07:59:13;102274.06;;;23.69;39.98
63194;BME280;49289;51.670;5.624;2023-05-20T08:01:00;102423.89;;;24.06;40.00
63194;BME280;49289;51.670;5.624;2023-05-20T08:02:47;102458.83;;;24.20;39.58
63194;BME280;49289;51.670;5.624;2023-05-20T08:04:34;102341.11;;;24.17;39.37
63194;BME280;49289;51.670;5.624;2023-05-20T08:06:21;102355.91;;;23.96;39.29
63194;BME280;49289;51.670;5.624;2023-05-20T08:08:09;102402.25;;;24.01;39.35
63194;BME280;49289;51.670;5.624;2023-05-20T08:09:56;102414.69;;;24.47;39.22
63194;BME280;49289;51.670;5.624;2023-05-20T08:11:43;102343.66;;;24.79;38.95
63194;BME280;49289;51.670;5.624;2023-05-20T08:13:30;102309.93;;;24.21;38.66
63194;BME280;49289;51.670;5.624;2023-05-20T08:15:19;102326.27;;;24.07;38.62
63194;BME280;49289;51.670;5.624;2023-05-20T08:17:06;102374.62;;;24.63;38.82
63194;BME280;49289;51.670;5.624;2023-05-20T08:18:54;102406.09;;;24.96;38.63
63194;BME280;49289;51.670;5.624;2023-05-20T08:20:42;102253.13;;;24.76;38.27
63194;BME280;49289;51.670;5.624;2023-05-20T08:22:30;102240.16;;;24.11;37.97
63194;BME280;49289;51.670;5.624;2023-05-20T08:24:18;102360.77;;;23.94;38.23
63194;BME280;49289;51.670;5.624;2023-05-20T08:26:06;102339.13;;;24.36;38.13
63194;BME280;49289;51.670;5.624;2023-05-20T08:27:53;102254.17;;;23.83;38.09
63194;BME280;49289;51.670;5.624;2023-05-20T08:29:40;102355.28;;;24.06;38.09
63194;BME280;49289;51.670;5.624;2023-05-20T08:31:28;102356.17;;;24.44;38.15
63194;BME280;49289;51.670;5.624;2023-05-20T08:33:15;102304.58;;;24.12;37.81
63194;BME280;49289;51.670;5.624;2023-05-20T08:35:02;102323.75;;;23.92;38.01
63194;BME280;49289;51.670;5.624;2023-05-20T08:36:49;102271.16;;;24.18;37.84
63194;BME280;49289;51.670;5.624;2023-05-20T08:38:36;102245.91;;;23.71;37.64
63194;BME280;49289;51.670;5.624;2023-05-20T08:40:25;102414.80;;;24.63;38.22
63194;BME280;49289;51.670;5.624;2023-05-20T08:42:12;102170.36;;;24.00;37.66
63194;BME280;49289;51.670;5.624;2023-05-20T08:43:59;102299.17;;;24.33;37.81
63194;BME280;49289;51.670;5.624;2023-05-20T08:45:46;102342.00;;;24.59;37.81
63194;BME280;49289;51.670;5.624;2023-05-20T08:47:33;102240.19;;;24.75;37.50
63194;BME280;49289;51.670;5.624;2023-05-20T08:49:20;102357.19;;;25.01;37.50
63194;BME280;49289;51.670;5.624;2023-05-20T08:51:08;102289.27;;;24.33;37.17
63194;BME280;49289;51.670;5.624;2023-05-20T08:52:54;102352.83;;;24.38;37.29
63194;BME280;49289;51.670;5.624;2023-05-20T08:54:44;102423.49;;;25.17;37.47
63194;BME280;49289;51.670;5.624;2023-05-20T08:56:30;102258.83;;;24.88;36.89
63194;BME280;49289;51.670;5.624;2023-05-20T08:58:17;102380.43;;;25.08;36.91
63194;BME280;49289;51.670;5.624;2023-05-20T09:00:04;102347.06;;;25.05;36.60
63194;BME280;49289;51.670;5.624;2023-05-20T09:01:51;102229.30;;;25.10;36.38
63194;BME280;49289;51.670;5.624;2023-05-20T09:03:38;102340.35;;;24.84;36.08
63194;BME280;49289;51.670;5.624;2023-05-20T09:05:25;102366.92;;;25.24;35.99
63194;BME280;49289;51.670;5.624;2023-05-20T09:07:12;102315.73;;;25.05;35.84
63194;BME280;49289;51.670;5.624;2023-05-20T09:09:00;102288.91;;;24.80;35.87
63194;BME280;49289;51.670;5.624;2023-05-20T09:10:47;102370.88;;;25.02;35.85
63194;BME280;49289;51.670;5.624;2023-05-20T09:12:35;102300.39;;;25.15;35.96
63194;BME280;49289;51.670;5.624;2023-05-20T09:14:23;102372.80;;;25.25;35.74
63194;BME280;49289;51.670;5.624;2023-05-20T09:16:11;102342.13;;;25.24;35.56
63194;BME280;49289;51.670;5.624;2023-05-20T09:17:58;102341.50;;;25.39;35.55
63194;BME280;49289;51.670;5.624;2023-05-20T09:19:46;102291.00;;;25.20;35.30
63194;BME280;49289;51.670;5.624;2023-05-20T09:21:36;102297.89;;;25.84;35.21